createdAt,value
2022-08-03T00:01:39.937Z,1.75
2022-08-03T00:04:08.342Z,1.80
2022-08-03T00:06:37.278Z,1.70
2022-08-03T00:09:05.565Z,1.50
2022-08-03T00:11:33.311Z,2.47
2022-08-03T00:14:01.142Z,1.52
2022-08-03T00:16:30.122Z,1.70
2022-08-03T00:18:57.756Z,1.80
2022-08-03T00:21:25.342Z,1.67
2022-08-03T00:23:53.041Z,2.22
2022-08-03T00:26:20.743Z,1.30
2022-08-03T00:28:48.487Z,1.60
2022-08-03T00:31:16.176Z,2.45
2022-08-03T00:33:59.264Z,2.10
2022-08-03T00:36:27.991Z,1.60
2022-08-03T00:38:55.660Z,1.60
2022-08-03T00:41:23.469Z,1.95
2022-08-03T00:43:51.312Z,1.92
2022-08-03T00:46:21.765Z,1.27
2022-08-03T00:48:51.717Z,1.60
2022-08-03T00:51:19.598Z,1.85
2022-08-03T00:53:47.231Z,2.20
2022-08-03T00:56:15.388Z,1.63
2022-08-03T00:58:44.749Z,1.67
2022-08-03T01:01:13.099Z,1.33
2022-08-03T01:03:41.200Z,1.73
2022-08-03T01:06:14.119Z,1.80
2022-08-03T01:08:52.741Z,1.67
2022-08-03T01:11:24.049Z,1.75
2022-08-03T01:14:01.175Z,2.22
2022-08-03T01:16:35.773Z,1.75
2022-08-03T01:19:13.774Z,1.70
2022-08-03T01:21:53.208Z,1.80
2022-08-03T01:24:28.294Z,1.80
2022-08-03T01:29:47.281Z,1.60
2022-08-03T01:32:59.695Z,1.88
2022-08-03T01:35:05.843Z,1.95
2022-08-03T01:37:36.372Z,2.10
2022-08-03T01:40:07.447Z,2.17
2022-08-03T01:42:35.865Z,2.35
2022-08-03T01:45:05.695Z,1.80
2022-08-03T01:47:33.889Z,3.15
2022-08-03T01:50:02.511Z,2.13
2022-08-03T01:52:31.124Z,1.60
2022-08-03T01:54:59.510Z,1.80
2022-08-03T01:57:29.145Z,2.25
2022-08-03T01:59:57.836Z,2.13
2022-08-03T02:02:33.379Z,2.05
2022-08-03T02:05:02.514Z,2.30
2022-08-03T02:07:30.634Z,3.05
2022-08-03T02:09:59.624Z,2.20
2022-08-03T02:12:27.980Z,2.63
2022-08-03T02:14:56.546Z,2.50
2022-08-03T02:17:39.411Z,2.88
2022-08-03T02:20:10.296Z,3.42
2022-08-03T02:22:40.288Z,2.55
2022-08-03T02:25:08.655Z,2.22
2022-08-03T02:27:40.586Z,1.90
2022-08-03T02:30:11.963Z,3.00
2022-08-03T02:32:40.685Z,2.10
2022-08-03T02:35:11.290Z,1.92
2022-08-03T02:37:42.996Z,2.28
2022-08-03T02:40:18.990Z,1.75
2022-08-03T02:42:47.738Z,2.03
2022-08-03T02:45:16.930Z,1.90
2022-08-03T02:47:54.457Z,2.03
2022-08-03T02:50:24.642Z,2.05
2022-08-03T02:52:53.215Z,2.30
2022-08-03T02:55:21.281Z,1.98
2022-08-03T02:57:49.337Z,2.65
2022-08-03T03:00:27.365Z,2.33
2022-08-03T03:02:57.757Z,2.05
2022-08-03T03:05:54.653Z,2.88
2022-08-03T03:08:18.682Z,2.90
2022-08-03T03:10:48.904Z,2.90
2022-08-03T03:13:22.185Z,3.20
2022-08-03T03:15:50.507Z,2.55
2022-08-03T03:18:22.339Z,3.63
2022-08-03T03:20:52.749Z,2.15
2022-08-03T03:23:21.294Z,2.45
2022-08-03T03:25:49.483Z,2.55
2022-08-03T03:28:17.315Z,2.95
2022-08-03T03:30:45.244Z,2.28
2022-08-03T03:33:20.702Z,2.15
2022-08-03T03:35:48.534Z,2.40
2022-08-03T03:38:17.525Z,2.92
2022-08-03T03:40:45.224Z,2.78
2022-08-03T03:43:13.556Z,2.60
2022-08-03T03:45:42.151Z,2.00
2022-08-03T03:48:10.079Z,2.65
2022-08-03T03:50:40.920Z,2.40
2022-08-03T03:53:10.329Z,2.95
2022-08-03T03:55:59.615Z,3.55
2022-08-03T03:58:27.807Z,2.78
2022-08-03T04:00:55.503Z,2.63
2022-08-03T04:03:23.272Z,3.45
2022-08-03T04:06:08.255Z,2.63
2022-08-03T04:08:53.753Z,3.42
2022-08-03T04:11:29.017Z,3.30
2022-08-03T04:14:01.738Z,3.75
2022-08-03T04:16:31.555Z,3.10
2022-08-03T04:19:01.850Z,2.50
2022-08-03T04:21:29.786Z,2.17
2022-08-03T04:23:59.619Z,2.63
2022-08-03T04:26:30.917Z,2.67
2022-08-03T04:28:59.929Z,2.75
2022-08-03T04:31:28.404Z,2.50
2022-08-03T04:33:56.542Z,3.22
2022-08-03T04:36:25.898Z,2.47
2022-08-03T04:39:02.371Z,2.40
2022-08-03T04:41:32.168Z,2.60
2022-08-03T04:44:20.742Z,2.88
2022-08-03T04:46:57.052Z,3.22
2022-08-03T04:49:25.156Z,2.40
2022-08-03T04:51:53.606Z,2.45
2022-08-03T04:54:21.273Z,2.40
2022-08-03T04:56:50.248Z,2.40
2022-08-03T04:59:18.002Z,3.17
2022-08-03T05:01:45.700Z,2.90
2022-08-03T05:04:13.647Z,2.45
2022-08-03T05:06:48.126Z,2.10
2022-08-03T05:09:39.564Z,3.90
2022-08-03T05:12:12.238Z,2.63
2022-08-03T05:14:40.166Z,2.95
2022-08-03T05:17:08.173Z,2.10
2022-08-03T05:19:36.306Z,2.40
2022-08-03T05:22:04.347Z,2.75
2022-08-03T05:24:31.969Z,2.47
2022-08-03T05:26:59.602Z,3.83
2022-08-03T05:29:29.479Z,2.67
2022-08-03T05:31:57.171Z,2.75
2022-08-03T05:34:24.847Z,2.75
2022-08-03T05:36:52.455Z,2.85
2022-08-03T05:39:20.051Z,2.25
2022-08-03T05:41:48.127Z,2.08
2022-08-03T05:44:15.976Z,2.38
2022-08-03T05:46:44.978Z,1.92
2022-08-03T05:49:12.680Z,1.80
2022-08-03T05:51:40.344Z,1.92
2022-08-03T05:54:07.971Z,1.67
2022-08-03T05:56:35.920Z,2.22
2022-08-03T05:59:22.439Z,1.83
2022-08-03T06:01:52.957Z,2.55
2022-08-03T06:04:20.688Z,1.83
2022-08-03T06:06:50.629Z,1.63
2022-08-03T06:09:18.825Z,1.42
2022-08-03T06:11:46.439Z,2.63
2022-08-03T06:14:14.090Z,2.05
2022-08-03T06:16:41.731Z,1.85
2022-08-03T06:19:10.678Z,1.85
2022-08-03T06:21:38.328Z,1.80
2022-08-03T06:24:07.991Z,1.92
2022-08-03T06:26:35.926Z,2.53
2022-08-03T06:29:03.925Z,1.70
2022-08-03T06:31:32.903Z,1.80
2022-08-03T06:34:33.227Z,1.92
2022-08-03T06:36:52.483Z,2.20
2022-08-03T06:39:20.577Z,2.08
2022-08-03T06:41:51.574Z,2.03
2022-08-03T06:44:19.203Z,2.40
2022-08-03T06:46:47.759Z,1.80
2022-08-03T06:49:15.540Z,2.42
2022-08-03T06:52:05.570Z,2.35
2022-08-03T06:54:33.474Z,2.22
2022-08-03T06:57:01.237Z,2.30
2022-08-03T07:00:11.053Z,2.08
2022-08-03T07:02:19.449Z,2.03
2022-08-03T07:04:47.312Z,1.95
2022-08-03T07:07:15.089Z,2.05
2022-08-03T07:09:56.410Z,2.28
2022-08-03T07:12:25.100Z,1.75
2022-08-03T07:14:57.954Z,1.85
2022-08-03T07:17:27.891Z,1.92
2022-08-03T07:19:55.580Z,2.42
2022-08-03T07:22:23.682Z,2.30
2022-08-03T07:24:52.806Z,1.75
2022-08-03T07:27:20.454Z,1.90
2022-08-03T07:29:48.202Z,2.30
2022-08-03T07:32:16.001Z,1.77
2022-08-03T07:34:43.767Z,2.20
2022-08-03T07:37:11.439Z,1.80
2022-08-03T07:39:39.038Z,1.60
2022-08-03T07:42:08.161Z,1.77
2022-08-03T07:44:35.780Z,2.78
2022-08-03T07:47:03.575Z,2.10
2022-08-03T07:49:31.494Z,1.65
2022-08-03T07:52:16.706Z,2.20
2022-08-03T07:54:44.937Z,1.15
2022-08-03T07:57:13.948Z,2.15
2022-08-03T07:59:56.654Z,1.75
2022-08-03T08:02:29.198Z,2.45
2022-08-03T08:04:56.944Z,2.35
2022-08-03T08:07:26.059Z,2.13
2022-08-03T08:09:54.313Z,2.35
2022-08-03T08:12:23.322Z,1.98
2022-08-03T08:14:51.345Z,2.47
2022-08-03T08:17:19.961Z,1.83
2022-08-03T08:19:51.635Z,1.85
2022-08-03T08:22:28.061Z,1.80
2022-08-03T08:24:58.530Z,2.13
2022-08-03T08:27:28.209Z,1.42
2022-08-03T08:30:19.338Z,1.70
2022-08-03T08:32:47.859Z,1.48
2022-08-03T08:35:15.520Z,2.03
2022-08-03T08:37:43.307Z,2.15
2022-08-03T08:40:21.406Z,1.70
2022-08-03T08:42:58.277Z,2.25
2022-08-03T08:45:26.677Z,1.80
2022-08-03T08:48:00.343Z,2.45
2022-08-03T08:50:29.846Z,2.10
2022-08-03T08:52:57.906Z,1.90
2022-08-03T08:55:25.820Z,1.40
2022-08-03T08:57:59.071Z,2.50
2022-08-03T09:00:26.765Z,1.80
2022-08-03T09:02:54.710Z,2.05
2022-08-03T09:05:31.641Z,1.50
2022-08-03T09:08:06.543Z,2.33
2022-08-03T09:10:34.878Z,2.13
2022-08-03T09:13:03.881Z,2.88
2022-08-03T09:15:32.545Z,1.73
2022-08-03T09:18:01.143Z,1.92
2022-08-03T09:20:29.626Z,1.60
2022-08-03T09:22:58.923Z,2.10
2022-08-03T09:25:37.442Z,1.63
2022-08-03T09:28:07.580Z,1.58
2022-08-03T09:30:35.977Z,1.92
2022-08-03T09:33:04.258Z,1.77
2022-08-03T09:38:23.920Z,2.15
2022-08-03T09:40:55.908Z,2.30
2022-08-03T09:43:28.058Z,2.00
2022-08-03T09:46:03.995Z,1.83
2022-08-03T09:48:33.306Z,2.67
2022-08-03T09:51:13.167Z,1.80
2022-08-03T09:53:59.509Z,2.15
2022-08-03T09:56:39.167Z,2.25
2022-08-03T09:59:08.268Z,1.70
2022-08-03T10:01:37.356Z,1.55
2022-08-03T10:04:05.679Z,1.50
2022-08-03T10:06:33.401Z,1.77
2022-08-03T10:09:08.131Z,1.38
2022-08-03T10:11:40.901Z,1.25
2022-08-03T10:14:18.699Z,1.55
2022-08-03T10:16:46.892Z,2.20
2022-08-03T10:19:15.220Z,1.23
2022-08-03T10:21:47.055Z,1.17
2022-08-03T10:24:18.108Z,1.40
2022-08-03T10:26:49.698Z,1.40
2022-08-03T10:29:22.783Z,1.40
2022-08-03T10:31:57.625Z,1.67
2022-08-03T10:34:27.217Z,1.13
2022-08-03T10:36:57.930Z,1.30
2022-08-03T10:39:27.234Z,1.10
2022-08-03T10:41:57.643Z,1.65
2022-08-03T10:44:30.205Z,1.50
2022-08-03T10:46:58.154Z,1.40
2022-08-03T10:49:34.557Z,1.10
2022-08-03T10:52:13.068Z,1.17
2022-08-03T10:55:07.413Z,1.05
2022-08-03T10:57:45.078Z,1.23
2022-08-03T11:00:16.174Z,1.40
2022-08-03T11:03:08.671Z,1.25
2022-08-03T11:05:37.613Z,1.20
2022-08-03T11:08:24.587Z,1.65
2022-08-03T11:10:53.368Z,1.75
2022-08-03T11:13:22.686Z,1.30
2022-08-03T11:15:52.956Z,1.10
2022-08-03T11:18:28.156Z,1.00
2022-08-03T11:20:56.260Z,2.42
2022-08-03T11:24:02.745Z,1.17
2022-08-03T11:26:26.573Z,1.25
2022-08-03T11:28:54.486Z,1.20
2022-08-03T11:31:49.787Z,1.25
2022-08-03T11:34:19.546Z,1.67
2022-08-03T11:37:06.009Z,1.45
2022-08-03T11:39:39.531Z,1.48
2022-08-03T11:42:27.020Z,1.07
2022-08-03T11:44:55.482Z,1.00
2022-08-03T11:47:24.077Z,1.20
2022-08-03T11:49:59.216Z,1.70
2022-08-03T11:52:28.722Z,1.27
2022-08-03T11:54:57.505Z,1.10
2022-08-03T11:59:01.554Z,1.35
2022-08-03T12:00:24.183Z,1.55
2022-08-03T12:03:02.058Z,1.48
2022-08-03T12:05:51.352Z,1.40
2022-08-03T12:08:20.918Z,1.83
2022-08-03T12:10:49.945Z,1.48
2022-08-03T12:14:44.705Z,1.70
2022-08-03T12:16:06.374Z,1.10
2022-08-03T12:18:34.361Z,1.63
2022-08-03T12:21:07.556Z,1.38
2022-08-03T12:23:37.795Z,1.75
2022-08-03T12:26:06.521Z,1.60
2022-08-03T12:28:36.772Z,2.63
2022-08-03T12:31:06.372Z,1.27
2022-08-03T12:33:34.185Z,1.20
2022-08-03T12:36:07.878Z,1.40
2022-08-03T12:38:37.246Z,1.48
2022-08-03T12:41:08.647Z,2.17
2022-08-03T12:43:39.536Z,1.60
2022-08-03T12:46:11.147Z,1.52
2022-08-03T12:48:55.777Z,1.65
2022-08-03T12:51:27.419Z,1.40
2022-08-03T12:53:56.204Z,1.70
2022-08-03T12:56:23.867Z,1.85
2022-08-03T12:58:53.079Z,2.20
2022-08-03T13:01:22.615Z,1.75
2022-08-03T13:03:52.883Z,1.45
2022-08-03T13:06:22.325Z,1.48
2022-08-03T13:09:02.966Z,1.35
2022-08-03T13:11:57.966Z,1.27
2022-08-03T13:14:20.082Z,1.50
2022-08-03T13:16:48.319Z,1.33
2022-08-03T13:19:16.138Z,1.73
2022-08-03T13:21:53.614Z,1.83
2022-08-03T13:24:33.682Z,1.50
2022-08-03T13:27:58.859Z,1.40
2022-08-03T13:29:50.344Z,1.73
2022-08-03T13:32:18.138Z,1.50
2022-08-03T13:34:45.781Z,1.70
2022-08-03T13:37:13.852Z,1.60
2022-08-03T13:39:57.205Z,1.33
2022-08-03T13:42:27.765Z,1.58
2022-08-03T13:44:55.437Z,1.90
2022-08-03T13:47:23.324Z,1.65
2022-08-03T13:49:59.476Z,1.65
2022-08-03T13:52:29.860Z,1.83
2022-08-03T13:54:58.968Z,1.77
2022-08-03T13:58:05.917Z,1.48
2022-08-03T14:00:16.117Z,1.70
2022-08-03T14:03:02.933Z,1.70
2022-08-03T14:05:32.738Z,1.30
2022-08-03T14:08:04.006Z,1.75
2022-08-03T14:10:33.713Z,1.42
2022-08-03T14:13:01.484Z,1.73
2022-08-03T14:15:29.195Z,1.77
2022-08-03T14:17:58.500Z,1.98
2022-08-03T14:20:37.722Z,1.90
2022-08-03T14:23:14.193Z,1.33
2022-08-03T14:25:50.430Z,1.40
2022-08-03T14:28:20.646Z,1.60
2022-08-03T14:30:48.662Z,1.80
2022-08-03T14:33:16.490Z,1.60
2022-08-03T14:35:44.168Z,1.80
2022-08-03T14:38:11.840Z,1.75
2022-08-03T14:40:39.542Z,1.73
2022-08-03T14:43:08.532Z,1.50
2022-08-03T14:45:36.144Z,1.85
2022-08-03T14:50:30.564Z,1.60
2022-08-03T14:50:55.151Z,1.42
2022-08-03T14:53:22.841Z,1.60
2022-08-03T14:55:51.883Z,1.52
2022-08-03T14:58:21.998Z,1.60
2022-08-03T15:00:50.674Z,1.50
2022-08-03T15:03:20.365Z,1.45
2022-08-03T15:05:48.395Z,1.92
2022-08-03T15:08:15.999Z,1.50
2022-08-03T15:10:44.117Z,1.70
2022-08-03T15:13:12.609Z,1.63
2022-08-03T15:15:42.034Z,1.63
2022-08-03T15:18:09.718Z,1.40
2022-08-03T15:20:44.314Z,1.63
2022-08-03T15:23:13.275Z,1.63
2022-08-03T15:26:06.548Z,0.98
2022-08-03T15:28:28.568Z,1.90
2022-08-03T15:30:57.704Z,1.70
2022-08-03T15:33:25.331Z,1.40
2022-08-03T15:35:53.082Z,1.50
2022-08-03T15:38:22.961Z,1.65
2022-08-03T15:40:54.471Z,1.67
2022-08-03T15:43:22.120Z,1.70
2022-08-03T15:45:54.595Z,1.42
2022-08-03T15:48:27.127Z,1.65
2022-08-03T15:50:55.313Z,1.48
2022-08-03T15:53:22.977Z,1.48
2022-08-03T15:55:50.627Z,1.45
2022-08-03T15:59:09.917Z,1.60
2022-08-03T16:01:06.539Z,1.67
2022-08-03T16:03:35.849Z,1.40
2022-08-03T16:06:03.884Z,1.67
2022-08-03T16:08:31.929Z,1.67
2022-08-03T16:11:02.150Z,1.30
2022-08-03T16:14:12.836Z,1.73
2022-08-03T16:16:17.424Z,1.42
2022-08-03T16:18:46.437Z,1.30
2022-08-03T16:21:17.772Z,1.40
2022-08-03T16:23:47.828Z,1.38
2022-08-03T16:26:15.491Z,1.73
2022-08-03T16:28:43.269Z,1.08
2022-08-03T16:31:10.941Z,1.83
2022-08-03T16:33:38.600Z,1.80
2022-08-03T16:36:07.769Z,1.30
2022-08-03T16:38:35.362Z,1.45
2022-08-03T16:41:04.731Z,1.30
2022-08-03T16:43:34.778Z,2.03
2022-08-03T16:46:02.550Z,1.40
2022-08-03T16:48:30.192Z,1.05
2022-08-03T16:50:57.930Z,1.63
2022-08-03T16:53:33.169Z,1.30
2022-08-03T16:56:14.864Z,1.88
2022-08-03T16:58:44.237Z,1.33
2022-08-03T17:01:22.413Z,1.30
2022-08-03T17:04:02.412Z,1.10
2022-08-03T17:06:34.166Z,1.50
2022-08-03T17:09:04.227Z,1.20
2022-08-03T17:11:37.200Z,1.25
2022-08-03T17:14:09.436Z,1.30
2022-08-03T17:16:38.387Z,1.50
2022-08-03T17:19:07.389Z,1.23
2022-08-03T17:21:39.067Z,1.65
2022-08-03T17:24:12.471Z,1.13
2022-08-03T17:26:43.308Z,1.40
2022-08-03T17:29:13.031Z,1.45
2022-08-03T17:31:42.251Z,1.60
2022-08-03T17:34:17.323Z,1.52
2022-08-03T17:37:03.782Z,1.45
2022-08-03T17:39:57.702Z,1.90
2022-08-03T17:42:31.321Z,1.50
2022-08-03T17:47:57.559Z,1.50
2022-08-03T17:50:34.102Z,1.20
2022-08-03T17:53:07.306Z,1.23
2022-08-03T17:55:55.893Z,1.30
2022-08-03T17:58:43.549Z,1.42
2022-08-03T18:02:00.219Z,1.30
2022-08-03T18:04:30.272Z,1.55
2022-08-03T18:06:59.323Z,1.23
2022-08-03T18:10:04.620Z,1.30
2022-08-03T18:12:23.567Z,1.30
2022-08-03T18:14:57.158Z,1.45
2022-08-03T18:17:57.783Z,1.42
2022-08-03T18:20:32.871Z,1.40
2022-08-03T18:23:06.379Z,1.38
2022-08-03T18:25:45.567Z,1.45
2022-08-03T18:28:25.559Z,2.90
2022-08-03T18:30:55.294Z,1.63
2022-08-03T18:34:16.860Z,2.58
2022-08-03T18:36:18.142Z,1.75
2022-08-03T18:38:53.955Z,2.13
2022-08-03T18:41:32.584Z,2.30
2022-08-03T18:44:08.944Z,2.60
2022-08-03T18:46:54.952Z,2.80
2022-08-03T18:49:29.237Z,3.05
2022-08-03T18:52:00.996Z,3.40
2022-08-03T18:54:57.232Z,3.08
2022-08-03T18:57:30.259Z,2.90
2022-08-03T19:00:10.441Z,3.03
2022-08-03T19:02:48.999Z,2.80
2022-08-03T19:05:18.026Z,3.08
2022-08-03T19:07:58.283Z,3.25
2022-08-03T19:10:30.875Z,2.30
2022-08-03T19:13:04.061Z,2.70
2022-08-03T19:15:36.953Z,2.92
2022-08-03T19:18:22.621Z,2.05
2022-08-03T19:20:51.451Z,2.22
2022-08-03T19:23:24.184Z,2.08
2022-08-03T19:25:51.958Z,2.35
2022-08-03T19:28:22.037Z,2.40
2022-08-03T19:31:02.689Z,2.38
2022-08-03T19:33:56.156Z,3.55
2022-08-03T19:36:25.665Z,2.33
2022-08-03T19:38:55.872Z,2.30
2022-08-03T19:41:25.036Z,2.42
2022-08-03T19:43:57.675Z,2.22
2022-08-03T19:46:30.819Z,2.60
2022-08-03T19:49:02.221Z,2.20
2022-08-03T19:52:02.267Z,2.13
2022-08-03T19:54:18.842Z,3.10
2022-08-03T19:56:58.124Z,1.88
2022-08-03T19:59:26.367Z,2.00
2022-08-03T20:01:55.529Z,2.35
2022-08-03T20:04:23.253Z,2.53
2022-08-03T20:06:57.067Z,2.83
2022-08-03T20:09:25.078Z,2.38
2022-08-03T20:11:58.957Z,2.50
2022-08-03T20:14:26.861Z,2.88
2022-08-03T20:16:56.050Z,2.42
2022-08-03T20:19:24.069Z,2.75
2022-08-03T20:22:00.559Z,2.42
2022-08-03T20:24:29.062Z,2.20
2022-08-03T20:26:57.753Z,2.67
2022-08-03T20:30:05.457Z,2.67
2022-08-03T20:32:19.554Z,3.08
2022-08-03T20:34:52.734Z,2.50
2022-08-03T20:37:21.003Z,2.65
2022-08-03T20:39:49.526Z,3.42
2022-08-03T20:42:21.596Z,2.35
2022-08-03T20:45:04.522Z,3.25
2022-08-03T20:47:36.816Z,2.67
2022-08-03T20:50:22.177Z,2.20
2022-08-03T20:52:50.553Z,3.80
2022-08-03T20:55:47.073Z,2.72
2022-08-03T20:58:07.718Z,2.72
2022-08-03T21:00:35.494Z,2.60
2022-08-03T21:03:06.764Z,3.03
2022-08-03T21:05:48.298Z,2.92
2022-08-03T21:08:22.100Z,2.60
2022-08-03T21:10:50.085Z,2.28
2022-08-03T21:12:55.019Z,2.22
2022-08-03T21:13:23.826Z,2.85
2022-08-03T21:16:12.605Z,3.08
2022-08-03T21:18:44.582Z,2.20
2022-08-03T21:21:14.062Z,2.83
2022-08-03T21:23:49.054Z,2.75
2022-08-03T21:26:17.895Z,2.80
2022-08-03T21:28:46.434Z,3.03
2022-08-03T21:31:14.655Z,2.50
2022-08-03T21:33:54.023Z,2.08
2022-08-03T21:36:21.773Z,2.50
2022-08-03T21:38:56.357Z,3.13
2022-08-03T21:41:24.902Z,3.05
2022-08-03T21:43:52.651Z,2.75
2022-08-03T21:46:25.066Z,2.65
2022-08-03T21:48:56.541Z,2.30
2022-08-03T21:51:44.296Z,3.60
2022-08-03T21:54:12.118Z,2.92
2022-08-03T21:56:41.857Z,2.97
2022-08-03T21:59:11.612Z,2.33
2022-08-03T22:01:40.677Z,2.97
2022-08-03T22:04:34.360Z,3.30
2022-08-03T22:06:58.889Z,2.60
2022-08-03T22:09:27.005Z,2.85
2022-08-03T22:11:55.373Z,2.88
2022-08-03T22:14:23.165Z,3.08
2022-08-03T22:16:50.838Z,3.05
2022-08-03T22:19:19.893Z,2.70
2022-08-03T22:21:48.762Z,2.90
2022-08-03T22:24:19.421Z,2.58
2022-08-03T22:27:09.515Z,3.92
2022-08-03T22:29:37.815Z,2.40
2022-08-03T22:32:05.589Z,3.10
2022-08-03T22:34:34.704Z,2.70
2022-08-03T22:37:03.592Z,2.50
2022-08-03T22:39:31.504Z,2.70
2022-08-03T22:41:59.878Z,2.97
2022-08-03T22:44:27.915Z,2.88
2022-08-03T22:46:55.585Z,3.58
2022-08-03T22:49:23.428Z,2.47
2022-08-03T22:51:53.168Z,2.50
2022-08-03T22:54:21.134Z,3.28
2022-08-03T22:56:48.816Z,2.88
2022-08-03T22:59:41.075Z,3.08
2022-08-03T23:02:15.190Z,3.20
2022-08-03T23:04:51.316Z,2.80
2022-08-03T23:07:22.941Z,3.85
2022-08-03T23:09:50.898Z,2.88
2022-08-03T23:12:19.309Z,2.78
2022-08-03T23:14:49.777Z,3.90
2022-08-03T23:17:18.203Z,2.40
2022-08-03T23:19:45.938Z,2.85
2022-08-03T23:22:29.687Z,2.95
2022-08-03T23:25:01.488Z,3.20
2022-08-03T23:27:29.363Z,3.55
2022-08-03T23:29:58.357Z,4.10
2022-08-03T23:32:26.479Z,3.92
2022-08-03T23:35:13.969Z,2.92
2022-08-03T23:38:04.830Z,3.50
2022-08-03T23:40:31.303Z,2.95
2022-08-03T23:42:59.392Z,2.95
2022-08-03T23:45:28.082Z,3.08
2022-08-03T23:47:55.727Z,3.78
2022-08-03T23:50:23.956Z,3.22
2022-08-03T23:52:59.015Z,3.25
2022-08-03T23:58:00.897Z,3.22
